createdAt,value
2022-09-15T00:00:30.929Z,99853.41
2022-09-15T00:02:57.606Z,99850.81
2022-09-15T00:05:24.202Z,99852.94
2022-09-15T00:07:50.737Z,99860.22
2022-09-15T00:10:17.625Z,99861.22
2022-09-15T00:12:44.493Z,99861.22
2022-09-15T00:15:14.560Z,99862.25
2022-09-15T00:17:42.502Z,99864.25
2022-09-15T00:20:10.339Z,99867.03
2022-09-15T00:22:36.828Z,99871.56
2022-09-15T00:25:03.910Z,99870.75
2022-09-15T00:27:33.266Z,99866.31
2022-09-15T00:29:59.837Z,99872.81
2022-09-15T00:32:27.033Z,99873.88
2022-09-15T00:34:53.658Z,99876.66
2022-09-15T00:37:20.692Z,99866.84
2022-09-15T00:39:47.924Z,99872.31
2022-09-15T00:42:24.512Z,99865.25
2022-09-15T00:44:58.560Z,99872.53
2022-09-15T00:47:38.732Z,99871.78
2022-09-15T00:50:15.192Z,99868.22
2022-09-15T00:52:52.728Z,99871.97
2022-09-15T00:55:31.216Z,99865.69
2022-09-15T00:58:02.599Z,99875.84
2022-09-15T01:00:31.217Z,99869.50
2022-09-15T01:02:58.975Z,99874.94
2022-09-15T01:05:39.582Z,99876.03
2022-09-15T01:08:15.622Z,99873.28
2022-09-15T01:10:42.289Z,99874.22
2022-09-15T01:13:12.406Z,99875.19
2022-09-15T01:16:03.925Z,99878.81
2022-09-15T01:18:51.753Z,99879.75
2022-09-15T01:21:18.269Z,99885.28
2022-09-15T01:24:22.867Z,99883.44
2022-09-15T01:27:30.532Z,99879.13
2022-09-15T01:29:54.782Z,99877.34
2022-09-15T01:32:48.200Z,99881.09
2022-09-15T01:35:25.594Z,99879.44
2022-09-15T01:38:06.100Z,99877.66
2022-09-15T01:40:39.678Z,99877.69
2022-09-15T01:43:09.812Z,99876.72
2022-09-15T01:45:42.137Z,99875.88
2022-09-15T01:48:09.382Z,99870.44
2022-09-15T01:50:42.745Z,99874.13
2022-09-15T01:53:15.376Z,99874.13
2022-09-15T01:55:47.258Z,99885.03
2022-09-15T01:58:13.974Z,99883.25
2022-09-15T02:00:45.882Z,99877.81
2022-09-15T02:03:25.158Z,99877.88
2022-09-15T02:06:01.949Z,99875.28
2022-09-15T02:08:33.474Z,99878.94
2022-09-15T02:11:07.643Z,99880.72
2022-09-15T02:13:48.273Z,99875.41
2022-09-15T02:16:20.028Z,99881.81
2022-09-15T02:19:04.337Z,99878.16
2022-09-15T02:21:42.772Z,99877.25
2022-09-15T02:24:16.422Z,99873.72
2022-09-15T02:26:43.160Z,99870.13
2022-09-15T02:29:13.058Z,99874.69
2022-09-15T02:31:42.165Z,99873.06
2022-09-15T02:34:15.653Z,99871.31
2022-09-15T02:36:42.989Z,99867.75
2022-09-15T02:39:14.762Z,99864.31
2022-09-15T02:41:41.899Z,99859.88
2022-09-15T02:44:09.988Z,99859.97
2022-09-15T02:46:36.866Z,99859.13
2022-09-15T02:49:03.592Z,99858.31
2022-09-15T02:51:30.992Z,99859.22
2022-09-15T02:53:57.757Z,99855.66
2022-09-15T02:56:24.315Z,99846.66
2022-09-15T02:58:51.048Z,99847.59
2022-09-15T03:01:31.745Z,99853.88
2022-09-15T03:03:59.067Z,99855.66
2022-09-15T03:06:27.848Z,99851.19
2022-09-15T03:08:58.726Z,99853.00
2022-09-15T03:11:27.639Z,99850.50
2022-09-15T03:13:59.819Z,99853.16
2022-09-15T03:16:29.898Z,99855.94
2022-09-15T03:18:59.257Z,99863.22
2022-09-15T03:21:27.621Z,99860.59
2022-09-15T03:23:54.153Z,99861.53
2022-09-15T03:26:20.789Z,99860.72
2022-09-15T03:28:47.284Z,99861.81
2022-09-15T03:31:13.852Z,99865.44
2022-09-15T03:33:40.533Z,99868.31
2022-09-15T03:36:07.620Z,99863.00
2022-09-15T03:38:34.176Z,99865.72
2022-09-15T03:41:09.732Z,99866.63
2022-09-15T03:43:37.221Z,99859.41
2022-09-15T03:46:05.987Z,99868.41
2022-09-15T03:48:35.014Z,99870.34
2022-09-15T03:51:03.438Z,99868.63
2022-09-15T03:53:34.526Z,99870.41
2022-09-15T03:56:22.005Z,99858.72
2022-09-15T03:58:49.974Z,99865.97
2022-09-15T04:01:21.915Z,99869.66
2022-09-15T04:03:51.110Z,99871.34
2022-09-15T04:06:22.321Z,99873.19
2022-09-15T04:08:53.172Z,99876.81
2022-09-15T04:11:21.578Z,99875.91
2022-09-15T04:13:48.810Z,99868.69
2022-09-15T04:16:18.970Z,99867.78
2022-09-15T04:18:46.400Z,99864.13
2022-09-15T04:21:15.894Z,99869.59
2022-09-15T04:23:43.483Z,99873.19
2022-09-15T04:26:31.173Z,99868.69
2022-09-15T04:29:03.082Z,99869.56
2022-09-15T04:31:33.995Z,99865.81
2022-09-15T04:34:00.643Z,99863.00
2022-09-15T04:36:32.318Z,99854.81
2022-09-15T04:38:58.955Z,99864.72
2022-09-15T04:41:29.357Z,99872.84
2022-09-15T04:43:58.222Z,99862.88
2022-09-15T04:46:25.698Z,99869.09
2022-09-15T04:48:52.832Z,99866.28
2022-09-15T04:51:20.897Z,99869.88
2022-09-15T04:53:48.355Z,99876.22
2022-09-15T04:56:20.133Z,99867.22
2022-09-15T04:59:03.518Z,99864.47
2022-09-15T05:01:32.311Z,99865.38
2022-09-15T05:04:01.370Z,99857.19
2022-09-15T05:06:28.249Z,99856.22
2022-09-15T05:08:57.689Z,99858.00
2022-09-15T05:11:25.290Z,99864.25
2022-09-15T05:13:52.071Z,99869.72
2022-09-15T05:16:23.867Z,99868.72
2022-09-15T05:18:51.988Z,99872.25
2022-09-15T05:21:20.688Z,99881.25
2022-09-15T05:23:47.944Z,99873.94
2022-09-15T05:26:18.124Z,99888.44
2022-09-15T05:28:44.892Z,99886.56
2022-09-15T05:31:20.163Z,99881.13
2022-09-15T05:33:49.205Z,99884.59
2022-09-15T05:36:20.191Z,99881.88
2022-09-15T05:38:46.833Z,99881.75
2022-09-15T05:41:16.929Z,99882.63
2022-09-15T05:43:45.273Z,99884.22
2022-09-15T05:46:12.823Z,99882.34
2022-09-15T05:48:39.449Z,99882.25
2022-09-15T05:51:06.184Z,99881.25
2022-09-15T05:53:34.828Z,99890.19
2022-09-15T05:56:07.228Z,99892.91
2022-09-15T05:58:34.171Z,99889.28
2022-09-15T06:01:12.052Z,99890.88
2022-09-15T06:03:38.816Z,99901.72
2022-09-15T06:06:06.564Z,99898.91
2022-09-15T06:08:41.405Z,99899.75
2022-09-15T06:11:12.621Z,99886.13
2022-09-15T06:13:40.155Z,99896.84
2022-09-15T06:16:25.220Z,99894.97
2022-09-15T06:18:53.896Z,99895.81
2022-09-15T06:21:23.685Z,99898.41
2022-09-15T06:23:59.476Z,99892.06
2022-09-15T06:26:27.030Z,99896.50
2022-09-15T06:28:57.025Z,99899.97
2022-09-15T06:31:25.279Z,99902.63
2022-09-15T06:33:55.852Z,99907.03
2022-09-15T06:36:24.992Z,99907.81
2022-09-15T06:38:52.424Z,99907.72
2022-09-15T06:41:19.140Z,99902.19
2022-09-15T06:43:46.456Z,99905.72
2022-09-15T06:46:15.995Z,99902.88
2022-09-15T06:48:45.234Z,99907.31
2022-09-15T06:51:17.110Z,99909.97
2022-09-15T06:53:45.770Z,99906.25
2022-09-15T06:56:17.756Z,99895.28
2022-09-15T06:58:45.368Z,99895.97
2022-09-15T07:01:14.343Z,99886.94
2022-09-15T07:03:44.044Z,99886.84
2022-09-15T07:06:14.815Z,99893.13
2022-09-15T07:08:41.811Z,99902.81
2022-09-15T07:11:10.052Z,99904.47
2022-09-15T07:13:37.206Z,99907.91
2022-09-15T07:16:06.462Z,99915.91
2022-09-15T07:18:33.545Z,99907.53
2022-09-15T07:21:02.216Z,99915.56
2022-09-15T07:23:28.792Z,99912.63
2022-09-15T07:26:07.257Z,99909.69
2022-09-15T07:28:34.210Z,99921.44
2022-09-15T07:31:01.021Z,99919.66
2022-09-15T07:33:27.705Z,99919.56
2022-09-15T07:35:54.261Z,99922.22
2022-09-15T07:38:20.777Z,99923.00
2022-09-15T07:40:48.999Z,99932.84
2022-09-15T07:43:16.138Z,99931.84
2022-09-15T07:45:42.990Z,99944.50
2022-09-15T07:48:09.605Z,99940.06
2022-09-15T07:50:36.281Z,99940.84
2022-09-15T07:53:03.499Z,99944.28
2022-09-15T07:55:31.285Z,99937.91
2022-09-15T07:57:59.344Z,99942.09
2022-09-15T08:00:26.891Z,99949.16
2022-09-15T08:02:54.142Z,99951.81
2022-09-15T08:05:20.745Z,99959.81
2022-09-15T08:07:47.371Z,99953.28
2022-09-15T08:10:14.007Z,99948.47
2022-09-15T08:12:40.840Z,99950.97
2022-09-15T08:15:07.801Z,99947.19
2022-09-15T08:17:34.974Z,99954.13
2022-09-15T08:20:02.240Z,99960.22
2022-09-15T08:22:28.949Z,99959.16
2022-09-15T08:24:55.551Z,99953.44
2022-09-15T08:27:22.084Z,99959.47
2022-09-15T08:29:49.200Z,99957.28
2022-09-15T08:32:17.175Z,99959.63
2022-09-15T08:34:43.795Z,99956.72
2022-09-15T08:37:10.339Z,99960.28
2022-09-15T08:39:36.888Z,99968.00
2022-09-15T08:42:04.741Z,99967.78
2022-09-15T08:44:49.572Z,99965.59
2022-09-15T08:47:27.869Z,99963.41
2022-09-15T08:50:23.231Z,99959.53
2022-09-15T08:53:00.734Z,99971.47
2022-09-15T08:55:55.648Z,99965.16
2022-09-15T08:58:28.349Z,99969.81
2022-09-15T09:01:02.453Z,99966.03
2022-09-15T09:03:28.985Z,99959.41
2022-09-15T09:06:14.908Z,99952.78
2022-09-15T09:09:02.623Z,99947.47
2022-09-15T09:12:05.552Z,99951.69
2022-09-15T09:15:19.799Z,99958.75
2022-09-15T09:18:08.336Z,99968.31
2022-09-15T09:21:22.640Z,99968.09
2022-09-15T09:24:15.873Z,99972.91
2022-09-15T09:26:46.340Z,99966.94
2022-09-15T09:29:18.436Z,99975.25
2022-09-15T09:31:50.582Z,99967.91
2022-09-15T09:34:33.689Z,99969.81
2022-09-15T09:37:09.088Z,99981.03
2022-09-15T09:39:35.866Z,99976.91
2022-09-15T09:42:03.810Z,99978.44
2022-09-15T09:44:33.461Z,99977.56
2022-09-15T09:47:01.510Z,99973.03
2022-09-15T09:49:35.102Z,99971.72
2022-09-15T09:52:03.579Z,99974.81
2022-09-15T09:54:34.289Z,99965.94
2022-09-15T09:57:12.698Z,99956.56
2022-09-15T09:59:46.464Z,99973.03
2022-09-15T10:02:48.378Z,99968.78
2022-09-15T10:05:20.019Z,99965.31
2022-09-15T10:07:47.702Z,99963.41
2022-09-15T10:10:23.219Z,99954.16
2022-09-15T10:12:54.704Z,99957.78
2022-09-15T10:15:31.881Z,99957.72
2022-09-15T10:17:58.621Z,99954.81
2022-09-15T10:20:32.908Z,99966.75
2022-09-15T10:23:23.586Z,99946.19
2022-09-15T10:26:00.335Z,99951.75
2022-09-15T10:28:27.895Z,99952.47
2022-09-15T10:31:16.181Z,99950.78
2022-09-15T10:33:47.810Z,99955.50
2022-09-15T10:36:20.363Z,99947.78
2022-09-15T10:39:02.486Z,99951.19
2022-09-15T10:41:31.714Z,99944.75
2022-09-15T10:44:14.368Z,99947.00
2022-09-15T10:47:14.604Z,99944.84
2022-09-15T10:49:53.109Z,99934.69
2022-09-15T10:52:51.132Z,99943.94
2022-09-15T10:55:24.817Z,99945.16
2022-09-15T10:58:24.918Z,99948.09
2022-09-15T11:01:00.930Z,99945.25
2022-09-15T11:03:55.457Z,99945.09
2022-09-15T11:06:47.187Z,99947.34
2022-09-15T11:09:14.042Z,99947.81
2022-09-15T11:11:49.536Z,99951.88
2022-09-15T11:14:29.614Z,99947.31
2022-09-15T11:17:12.909Z,99959.16
2022-09-15T11:20:13.465Z,99963.19
2022-09-15T11:22:52.886Z,99978.34
2022-09-15T11:25:26.532Z,99987.66
2022-09-15T11:28:02.073Z,100001.47
2022-09-15T11:30:38.106Z,100000.00
2022-09-15T11:33:11.114Z,100004.44
2022-09-15T11:35:37.833Z,99994.13
2022-09-15T11:38:34.427Z,99981.75
2022-09-15T11:41:20.497Z,99986.69
2022-09-15T11:43:57.194Z,99989.56
2022-09-15T11:46:34.505Z,99984.28
2022-09-15T11:49:13.914Z,99983.16
2022-09-15T11:51:50.683Z,99981.09
2022-09-15T11:54:26.063Z,99984.69
2022-09-15T11:56:55.349Z,99985.13
2022-09-15T11:59:37.217Z,99987.06
2022-09-15T12:02:22.341Z,99989.78
2022-09-15T12:05:14.123Z,99992.22
2022-09-15T12:07:48.653Z,99983.97
2022-09-15T12:10:26.017Z,99983.78
2022-09-15T12:12:53.937Z,99982.75
2022-09-15T12:15:27.255Z,99992.66
2022-09-15T12:18:34.604Z,99990.59
2022-09-15T12:21:34.063Z,100001.22
2022-09-15T12:24:13.679Z,99991.19
2022-09-15T12:26:43.197Z,99991.91
2022-09-15T12:29:21.895Z,99991.13
2022-09-15T12:31:48.674Z,100001.44
2022-09-15T12:34:24.744Z,100001.91
2022-09-15T12:37:06.488Z,99976.03
2022-09-15T12:39:39.871Z,99983.59
2022-09-15T12:42:33.500Z,99978.69
2022-09-15T12:45:19.151Z,99979.00
2022-09-15T12:47:54.646Z,99985.03
2022-09-15T12:50:38.002Z,99983.03
2022-09-15T12:53:20.849Z,99987.66
2022-09-15T12:56:00.711Z,99982.47
2022-09-15T12:58:40.745Z,99981.38
2022-09-15T13:01:22.743Z,99987.88
2022-09-15T13:03:50.844Z,99988.91
2022-09-15T13:06:34.942Z,99989.94
2022-09-15T13:09:01.610Z,99994.69
2022-09-15T13:11:39.170Z,99988.34
2022-09-15T13:14:10.733Z,99989.13
2022-09-15T13:16:43.673Z,99990.59
2022-09-15T13:19:41.625Z,99982.00
2022-09-15T13:22:11.556Z,99981.09
2022-09-15T13:24:49.901Z,99977.56
2022-09-15T13:27:21.051Z,99971.38
2022-09-15T13:30:26.144Z,99977.72
2022-09-15T13:35:02.271Z,99970.31
2022-09-15T13:39:58.560Z,99969.28
2022-09-15T13:42:40.656Z,99960.34
2022-09-15T13:45:20.940Z,99963.00
2022-09-15T13:47:56.744Z,99973.03
2022-09-15T13:50:31.127Z,99969.34
2022-09-15T13:53:25.505Z,99958.25
2022-09-15T13:55:55.522Z,99962.28
2022-09-15T14:01:12.933Z,99961.75
2022-09-15T14:03:50.377Z,99956.13
2022-09-15T14:06:27.535Z,99968.34
2022-09-15T14:08:58.639Z,99950.31
2022-09-15T14:11:31.554Z,99958.25
2022-09-15T14:14:01.456Z,99952.28
2022-09-15T14:16:33.894Z,99944.91
2022-09-15T14:19:23.634Z,99945.97
2022-09-15T14:21:53.778Z,99952.16
2022-09-15T14:24:30.525Z,99953.75
2022-09-15T14:27:00.689Z,99955.50
2022-09-15T14:29:27.768Z,99949.56
2022-09-15T14:32:00.676Z,99947.81
2022-09-15T14:34:31.560Z,99951.50
2022-09-15T14:37:06.896Z,99957.63
2022-09-15T14:39:37.253Z,99955.69
2022-09-15T14:42:30.335Z,99951.81
2022-09-15T14:48:06.481Z,99952.03
2022-09-15T14:50:33.768Z,99945.53
2022-09-15T14:53:18.113Z,99956.78
2022-09-15T14:56:01.261Z,99959.44
2022-09-15T14:58:42.386Z,99958.88
2022-09-15T15:01:22.380Z,99950.38
2022-09-15T15:04:10.121Z,99950.38
2022-09-15T15:06:48.704Z,99957.28
2022-09-15T15:09:25.988Z,99961.97
2022-09-15T15:11:58.232Z,99958.59
2022-09-15T15:14:25.414Z,99989.38
2022-09-15T15:17:02.419Z,99996.38
2022-09-15T15:19:39.487Z,100002.41
2022-09-15T15:22:23.077Z,99993.84
2022-09-15T15:24:52.497Z,99996.59
2022-09-15T15:27:54.446Z,99989.28
2022-09-15T15:30:30.795Z,100000.34
2022-09-15T15:33:03.533Z,100001.59
2022-09-15T15:35:31.926Z,100000.88
2022-09-15T15:38:18.124Z,99993.88
2022-09-15T15:40:45.762Z,99994.16
2022-09-15T15:43:12.496Z,99999.59
2022-09-15T15:45:49.903Z,99989.16
2022-09-15T15:48:16.638Z,99985.44
2022-09-15T15:50:43.432Z,99982.72
2022-09-15T15:53:10.044Z,99989.16
2022-09-15T15:55:41.936Z,99990.19
2022-09-15T15:58:10.753Z,99985.75
2022-09-15T16:00:44.139Z,99988.56
2022-09-15T16:03:11.781Z,99983.97
2022-09-15T16:05:40.785Z,99989.59
2022-09-15T16:08:14.387Z,99988.59
2022-09-15T16:10:42.684Z,99990.00
2022-09-15T16:13:13.315Z,99994.56
2022-09-15T16:15:39.953Z,99994.75
2022-09-15T16:18:06.676Z,99992.31
2022-09-15T16:20:33.422Z,99997.75
2022-09-15T16:23:00.034Z,99992.31
2022-09-15T16:25:41.714Z,99987.41
2022-09-15T16:28:08.686Z,99990.16
2022-09-15T16:30:35.401Z,99995.59
2022-09-15T16:33:02.112Z,99995.75
2022-09-15T16:35:40.119Z,99988.53
2022-09-15T16:38:07.876Z,99996.03
2022-09-15T16:40:36.873Z,99995.06
2022-09-15T16:43:08.746Z,99985.25
2022-09-15T16:45:40.541Z,99983.13
2022-09-15T16:48:09.450Z,99974.75
2022-09-15T16:50:39.899Z,99987.63
2022-09-15T16:53:14.258Z,99989.47
2022-09-15T16:55:45.942Z,99994.94
2022-09-15T16:58:14.473Z,99994.25
2022-09-15T17:00:42.081Z,99991.50
2022-09-15T17:03:10.308Z,99993.44
2022-09-15T17:05:48.294Z,99995.34
2022-09-15T17:08:16.784Z,100000.94
2022-09-15T17:10:43.821Z,99998.13
2022-09-15T17:13:17.446Z,99995.59
2022-09-15T17:15:45.741Z,99993.03
2022-09-15T17:18:15.269Z,99994.94
2022-09-15T17:20:43.209Z,99983.28
2022-09-15T17:23:17.762Z,99984.31
2022-09-15T17:25:51.958Z,99993.66
2022-09-15T17:28:21.103Z,100002.00
2022-09-15T17:30:50.179Z,100002.16
2022-09-15T17:33:18.754Z,100005.97
2022-09-15T17:35:45.690Z,100008.84
2022-09-15T17:38:12.542Z,100015.22
2022-09-15T17:40:39.643Z,100017.13
2022-09-15T17:43:13.915Z,100015.34
2022-09-15T17:45:41.000Z,100022.84
2022-09-15T17:48:08.308Z,100012.91
2022-09-15T17:50:36.638Z,100018.41
2022-09-15T17:53:09.597Z,100011.34
2022-09-15T17:55:39.480Z,100020.53
2022-09-15T17:58:09.447Z,100028.69
2022-09-15T18:00:41.711Z,100026.03
2022-09-15T18:03:20.997Z,100028.13
2022-09-15T18:05:49.360Z,100016.53
2022-09-15T18:08:16.841Z,100014.75
2022-09-15T18:10:44.058Z,100031.88
2022-09-15T18:13:15.029Z,100025.41
2022-09-15T18:15:42.853Z,100036.31
2022-09-15T18:18:16.393Z,100042.00
2022-09-15T18:20:43.413Z,100024.94
2022-09-15T18:23:16.506Z,100036.78
2022-09-15T18:25:44.590Z,100042.00
2022-09-15T18:28:14.278Z,100043.22
2022-09-15T18:30:43.094Z,100050.44
2022-09-15T18:33:28.153Z,100047.00
2022-09-15T18:35:56.797Z,100049.03
2022-09-15T18:38:24.077Z,100052.81
2022-09-15T18:40:56.167Z,100049.03
2022-09-15T18:43:25.139Z,100054.69
2022-09-15T18:45:53.234Z,100054.81
2022-09-15T18:48:20.357Z,100056.81
2022-09-15T18:50:47.393Z,100065.13
2022-09-15T18:53:15.890Z,100061.50
2022-09-15T18:55:43.697Z,100063.41
2022-09-15T18:58:11.373Z,100060.75
2022-09-15T19:00:38.645Z,100060.09
2022-09-15T19:03:06.829Z,100050.31
2022-09-15T19:05:34.137Z,100062.97
2022-09-15T19:08:01.758Z,100059.44
2022-09-15T19:10:29.166Z,100058.66
2022-09-15T19:12:55.795Z,100056.09
2022-09-15T19:15:23.979Z,100058.00
2022-09-15T19:17:50.968Z,100062.72
2022-09-15T19:20:17.977Z,100067.31
2022-09-15T19:22:44.887Z,100056.44
2022-09-15T19:25:12.140Z,100057.41
2022-09-15T19:27:39.704Z,100067.44
2022-09-15T19:30:09.847Z,100070.00
2022-09-15T19:32:38.253Z,100065.56
2022-09-15T19:35:05.937Z,100067.56
2022-09-15T19:37:36.928Z,100067.69
2022-09-15T19:40:08.165Z,100072.41
2022-09-15T19:42:35.622Z,100075.13
2022-09-15T19:45:02.228Z,100072.56
2022-09-15T19:47:29.253Z,100072.66
2022-09-15T19:49:55.830Z,100067.34
2022-09-15T19:52:22.577Z,100070.09
2022-09-15T19:54:49.205Z,100070.09
2022-09-15T19:57:16.493Z,100074.00
2022-09-15T19:59:44.586Z,100081.31
2022-09-15T20:02:11.952Z,100076.84
2022-09-15T20:04:41.783Z,100077.09
2022-09-15T20:07:08.350Z,100083.59
2022-09-15T20:09:35.611Z,100074.50
2022-09-15T20:12:05.561Z,100080.03
2022-09-15T20:14:32.396Z,100081.09
2022-09-15T20:17:01.770Z,100078.47
2022-09-15T20:19:29.324Z,100086.63
2022-09-15T20:21:56.014Z,100078.69
2022-09-15T20:24:23.796Z,100087.09
2022-09-15T20:26:51.272Z,100091.75
2022-09-15T20:29:18.388Z,100088.06
2022-09-15T20:31:44.993Z,100098.19
2022-09-15T20:34:11.951Z,100083.81
2022-09-15T20:36:39.487Z,100088.50
2022-09-15T20:39:13.123Z,100083.19
2022-09-15T20:41:44.754Z,100085.03
2022-09-15T20:44:12.061Z,100086.06
2022-09-15T20:46:39.271Z,100086.88
2022-09-15T20:49:06.525Z,100089.72
2022-09-15T20:51:36.935Z,100088.78
2022-09-15T20:54:04.835Z,100090.69
2022-09-15T20:56:34.759Z,100088.00
2022-09-15T20:59:02.801Z,100093.47
2022-09-15T21:01:34.050Z,100105.31
2022-09-15T21:04:06.965Z,100086.25
2022-09-15T21:06:34.015Z,100098.84
2022-09-15T21:09:00.979Z,100090.75
2022-09-15T21:11:30.076Z,100090.97
2022-09-15T21:13:57.686Z,100088.31
2022-09-15T21:16:26.900Z,100090.00
2022-09-15T21:18:54.248Z,100088.22
2022-09-15T21:21:27.331Z,100083.72
2022-09-15T21:24:01.082Z,100091.06
2022-09-15T21:26:35.365Z,100103.94
2022-09-15T21:29:02.648Z,100094.91
2022-09-15T21:31:32.128Z,100104.00
2022-09-15T21:33:59.668Z,100107.75
2022-09-15T21:36:28.563Z,100107.63
2022-09-15T21:38:57.066Z,100106.75
2022-09-15T21:41:26.004Z,100110.41
2022-09-15T21:43:54.915Z,100106.06
2022-09-15T21:46:24.345Z,100108.66
2022-09-15T21:48:51.679Z,100107.75
2022-09-15T21:51:24.329Z,100107.78
2022-09-15T21:53:56.700Z,100109.63
2022-09-15T21:56:24.435Z,100111.38
2022-09-15T21:58:50.981Z,100126.00
2022-09-15T22:01:19.993Z,100124.22
2022-09-15T22:03:58.389Z,100128.88
2022-09-15T22:06:31.789Z,100128.94
2022-09-15T22:09:01.741Z,100135.44
2022-09-15T22:11:28.667Z,100128.22
2022-09-15T22:13:55.706Z,100129.25
2022-09-15T22:16:24.349Z,100132.88
2022-09-15T22:18:51.928Z,100135.72
2022-09-15T22:21:21.205Z,100133.94
2022-09-15T22:23:49.473Z,100133.16
2022-09-15T22:26:19.995Z,100129.69
2022-09-15T22:28:47.146Z,100136.09
2022-09-15T22:31:16.718Z,100135.31
2022-09-15T22:33:43.476Z,100134.44
2022-09-15T22:36:11.616Z,100139.91
2022-09-15T22:38:38.652Z,100130.03
2022-09-15T22:41:14.309Z,100136.34
2022-09-15T22:43:42.225Z,100126.69
2022-09-15T22:46:09.303Z,100129.50
2022-09-15T22:48:38.594Z,100136.72
2022-09-15T22:51:11.191Z,100134.97
2022-09-15T22:53:38.159Z,100134.91
2022-09-15T22:56:19.614Z,100133.19
2022-09-15T22:58:48.361Z,100117.94
2022-09-15T23:01:20.538Z,100127.94
2022-09-15T23:04:05.378Z,100129.88
2022-09-15T23:06:34.310Z,100127.25
2022-09-15T23:09:04.534Z,100130.16
2022-09-15T23:11:33.201Z,100124.81
2022-09-15T23:14:00.249Z,100126.59
2022-09-15T23:16:27.301Z,100118.59
2022-09-15T23:18:54.993Z,100136.81
2022-09-15T23:21:21.831Z,100128.78
2022-09-15T23:23:49.218Z,100125.13
2022-09-15T23:26:22.871Z,100116.28
2022-09-15T23:28:49.802Z,100105.56
2022-09-15T23:31:17.365Z,100119.19
2022-09-15T23:33:44.101Z,100111.16
2022-09-15T23:36:19.251Z,100114.69
2022-09-15T23:38:46.802Z,100111.25
2022-09-15T23:41:15.378Z,100123.78
2022-09-15T23:43:42.010Z,100115.88
2022-09-15T23:46:09.428Z,100111.38
2022-09-15T23:48:36.737Z,100115.94
2022-09-15T23:51:04.009Z,100127.72
2022-09-15T23:53:30.679Z,100119.63
2022-09-15T23:55:57.271Z,100118.75
2022-09-15T23:58:24.611Z,100116.03
